createdAt,value
2023-03-27T00:03:53.461Z,10.60
2023-03-27T00:06:20.951Z,10.60
2023-03-27T00:11:20.124Z,10.60
2023-03-27T00:18:48.737Z,10.60
2023-03-27T00:23:42.684Z,10.60
2023-03-27T00:31:13.672Z,10.60
2023-03-27T00:33:42.388Z,10.60
2023-03-27T00:36:13.237Z,10.60
2023-03-27T00:38:40.069Z,10.60
2023-03-27T00:41:09.485Z,10.60
2023-03-27T00:43:41.049Z,10.50
2023-03-27T00:46:08.020Z,10.60
2023-03-27T00:48:36.956Z,13.30
2023-03-27T00:51:04.806Z,10.50
2023-03-27T00:53:31.566Z,10.40
2023-03-27T00:56:02.403Z,10.40
2023-03-27T00:58:35.202Z,10.40
2023-03-27T01:01:01.990Z,10.40
2023-03-27T01:03:31.556Z,10.40
2023-03-27T01:06:01.346Z,10.40
2023-03-27T01:08:30.267Z,10.40
2023-03-27T01:11:18.932Z,10.40
2023-03-27T01:13:45.642Z,10.40
2023-03-27T01:16:20.411Z,10.40
2023-03-27T01:18:56.506Z,10.40
2023-03-27T01:21:44.416Z,10.40
2023-03-27T01:24:14.536Z,10.40
2023-03-27T01:27:02.626Z,10.40
2023-03-27T01:29:38.294Z,10.30
2023-03-27T01:32:35.299Z,10.30
2023-03-27T01:35:13.229Z,10.30
2023-03-27T01:38:10.559Z,10.30
2023-03-27T01:40:47.545Z,10.30
2023-03-27T01:43:18.110Z,10.20
2023-03-27T01:45:44.722Z,10.20
2023-03-27T01:48:26.501Z,10.20
2023-03-27T01:51:08.195Z,10.20
2023-03-27T01:53:44.760Z,10.10
2023-03-27T01:56:26.820Z,10.10
2023-03-27T01:58:57.750Z,10.10
2023-03-27T02:01:29.808Z,10.10
2023-03-27T02:03:58.878Z,10.10
2023-03-27T02:06:31.411Z,10.10
2023-03-27T02:09:30.041Z,10.10
2023-03-27T02:12:16.496Z,10.10
2023-03-27T02:14:48.514Z,10.10
2023-03-27T02:17:18.148Z,10.10
2023-03-27T02:19:51.395Z,10.10
2023-03-27T02:22:18.586Z,10.10
2023-03-27T02:24:46.233Z,10.00
2023-03-27T02:27:20.475Z,10.00
2023-03-27T02:30:16.745Z,9.90
2023-03-27T02:33:09.631Z,9.20
2023-03-27T02:35:55.150Z,9.90
2023-03-27T02:38:41.480Z,9.90
2023-03-27T02:41:29.443Z,9.90
2023-03-27T02:44:21.796Z,9.80
2023-03-27T02:46:56.419Z,9.80
2023-03-27T02:49:31.336Z,9.80
2023-03-27T02:52:02.767Z,9.80
2023-03-27T02:54:33.890Z,9.80
2023-03-27T02:57:05.395Z,9.80
2023-03-27T02:59:35.842Z,9.80
2023-03-27T03:02:09.569Z,9.80
2023-03-27T03:04:41.608Z,9.70
2023-03-27T03:07:09.607Z,9.70
2023-03-27T03:09:40.548Z,9.70
2023-03-27T03:12:08.080Z,9.70
2023-03-27T03:14:37.923Z,9.60
2023-03-27T03:17:04.624Z,9.60
2023-03-27T03:19:31.354Z,9.60
2023-03-27T03:21:58.122Z,9.60
2023-03-27T03:24:24.779Z,9.50
2023-03-27T03:26:51.844Z,9.50
2023-03-27T03:29:19.231Z,9.50
2023-03-27T03:31:46.287Z,9.50
2023-03-27T03:34:16.059Z,9.40
2023-03-27T03:36:43.085Z,11.20
2023-03-27T03:39:09.745Z,9.40
2023-03-27T03:41:36.352Z,9.30
2023-03-27T03:44:03.236Z,9.30
2023-03-27T03:46:29.901Z,9.30
2023-03-27T03:51:26.193Z,9.30
2023-03-27T03:53:52.942Z,9.20
2023-03-27T03:56:19.785Z,9.30
2023-03-27T03:58:46.468Z,9.20
2023-03-27T04:01:13.603Z,9.20
2023-03-27T04:03:41.486Z,9.10
2023-03-27T04:06:08.835Z,9.10
2023-03-27T04:08:35.499Z,9.10
2023-03-27T04:11:02.134Z,9.00
2023-03-27T04:13:28.810Z,9.60
2023-03-27T04:18:32.385Z,9.00
2023-03-27T04:20:59.442Z,8.90
2023-03-27T04:23:32.071Z,8.90
2023-03-27T04:26:03.216Z,8.90
2023-03-27T04:28:34.606Z,8.80
2023-03-27T04:31:06.321Z,8.90
2023-03-27T04:33:34.262Z,8.80
2023-03-27T04:36:05.635Z,8.80
2023-03-27T04:38:36.729Z,8.80
2023-03-27T04:41:06.284Z,8.70
2023-03-27T04:43:36.535Z,8.70
2023-03-27T04:46:05.827Z,8.60
2023-03-27T04:48:32.916Z,8.70
2023-03-27T04:50:59.648Z,8.70
2023-03-27T04:53:30.122Z,8.60
2023-03-27T04:55:57.283Z,8.50
2023-03-27T04:58:25.749Z,8.80
2023-03-27T05:00:55.679Z,8.50
2023-03-27T05:03:27.784Z,8.40
2023-03-27T05:05:54.678Z,8.50
2023-03-27T05:08:21.580Z,8.40
2023-03-27T05:10:48.424Z,8.40
2023-03-27T05:13:15.377Z,8.30
2023-03-27T05:15:42.049Z,8.40
2023-03-27T05:18:09.104Z,8.30
2023-03-27T05:20:36.440Z,8.30
2023-03-27T05:23:03.207Z,8.30
2023-03-27T05:25:31.101Z,8.20
2023-03-27T05:27:58.073Z,8.20
2023-03-27T05:30:26.868Z,8.20
2023-03-27T05:35:23.741Z,8.10
2023-03-27T05:37:52.500Z,8.10
2023-03-27T05:40:22.277Z,8.10
2023-03-27T05:42:50.468Z,7.80
2023-03-27T05:45:17.942Z,8.10
2023-03-27T05:47:55.949Z,8.00
2023-03-27T05:50:26.371Z,8.00
2023-03-27T05:53:04.500Z,7.90
2023-03-27T05:55:34.253Z,7.90
2023-03-27T05:58:00.897Z,7.90
2023-03-27T06:00:31.971Z,7.90
2023-03-27T06:03:00.442Z,7.80
2023-03-27T06:05:29.274Z,7.80
2023-03-27T06:07:59.745Z,7.80
2023-03-27T06:10:28.935Z,7.70
2023-03-27T06:13:08.941Z,7.70
2023-03-27T06:15:38.654Z,7.70
2023-03-27T06:18:05.600Z,8.50
2023-03-27T06:20:32.685Z,7.60
2023-03-27T06:23:00.147Z,7.60
2023-03-27T06:25:27.776Z,7.60
2023-03-27T06:27:54.532Z,7.60
2023-03-27T06:30:23.707Z,7.60
2023-03-27T06:35:26.042Z,7.50
2023-03-27T06:37:53.574Z,7.40
2023-03-27T06:43:06.001Z,7.40
2023-03-27T06:45:47.174Z,7.40
2023-03-27T06:48:21.612Z,7.40
2023-03-27T06:50:50.426Z,7.40
2023-03-27T06:55:48.118Z,7.30
2023-03-27T06:58:15.083Z,7.30
2023-03-27T07:00:43.921Z,7.30
2023-03-27T07:03:11.936Z,7.30
2023-03-27T07:05:40.775Z,7.30
2023-03-27T07:08:22.495Z,7.30
2023-03-27T07:10:59.646Z,7.30
2023-03-27T07:13:34.798Z,7.30
2023-03-27T07:16:01.481Z,7.30
2023-03-27T07:18:28.179Z,7.30
2023-03-27T07:20:55.049Z,7.30
2023-03-27T07:23:21.933Z,7.20
2023-03-27T07:25:49.998Z,7.20
2023-03-27T07:28:18.398Z,7.30
2023-03-27T07:30:45.208Z,7.30
2023-03-27T07:33:12.480Z,7.30
2023-03-27T07:35:47.106Z,7.20
2023-03-27T07:38:14.748Z,7.30
2023-03-27T07:40:43.566Z,7.30
2023-03-27T07:43:10.247Z,7.30
2023-03-27T07:45:37.064Z,7.30
2023-03-27T07:48:08.722Z,7.30
2023-03-27T07:50:35.998Z,7.30
2023-03-27T07:53:02.801Z,7.30
2023-03-27T07:55:32.211Z,7.30
2023-03-27T07:58:02.796Z,7.30
2023-03-27T08:00:31.467Z,7.30
2023-03-27T08:03:06.912Z,7.30
2023-03-27T08:05:33.900Z,7.30
2023-03-27T08:08:01.296Z,7.30
2023-03-27T08:10:27.969Z,7.30
2023-03-27T08:12:54.617Z,7.30
2023-03-27T08:15:21.559Z,7.40
2023-03-27T08:17:55.216Z,7.40
2023-03-27T08:20:24.009Z,7.40
2023-03-27T08:22:52.704Z,8.90
2023-03-27T08:25:19.923Z,7.40
2023-03-27T08:30:16.932Z,7.40
2023-03-27T08:32:44.363Z,7.40
2023-03-27T08:35:12.173Z,7.50
2023-03-27T08:37:39.918Z,7.50
2023-03-27T08:40:13.882Z,7.50
2023-03-27T08:42:42.953Z,7.50
2023-03-27T08:45:14.663Z,7.60
2023-03-27T08:47:46.284Z,7.60
2023-03-27T08:50:26.212Z,7.60
2023-03-27T08:52:53.068Z,7.60
2023-03-27T08:55:28.675Z,7.70
2023-03-27T08:57:55.668Z,7.70
2023-03-27T09:00:25.098Z,7.70
2023-03-27T09:02:57.266Z,7.80
2023-03-27T09:05:34.389Z,9.10
2023-03-27T09:08:26.020Z,7.90
2023-03-27T09:11:05.440Z,7.90
2023-03-27T09:13:46.208Z,8.00
2023-03-27T09:16:23.177Z,8.00
2023-03-27T09:21:40.594Z,8.10
2023-03-27T09:24:13.826Z,8.20
2023-03-27T09:26:41.189Z,8.20
2023-03-27T09:29:22.158Z,8.20
2023-03-27T09:31:51.117Z,8.30
2023-03-27T09:34:25.515Z,8.40
2023-03-27T09:36:52.292Z,8.40
2023-03-27T09:39:27.464Z,8.50
2023-03-27T09:41:57.947Z,8.60
2023-03-27T09:44:27.282Z,8.60
2023-03-27T09:46:59.040Z,8.70
2023-03-27T09:49:27.461Z,8.70
2023-03-27T09:51:55.462Z,8.10
2023-03-27T09:54:24.761Z,8.80
2023-03-27T09:57:00.020Z,8.80
2023-03-27T09:59:39.277Z,8.80
2023-03-27T10:02:28.432Z,8.90
2023-03-27T10:05:16.678Z,9.00
2023-03-27T10:07:44.063Z,9.00
2023-03-27T10:10:17.359Z,9.10
2023-03-27T10:12:58.393Z,9.10
2023-03-27T10:15:25.082Z,9.10
2023-03-27T10:17:51.856Z,9.10
2023-03-27T10:20:21.315Z,9.20
2023-03-27T10:22:56.615Z,9.30
2023-03-27T10:28:07.901Z,9.40
2023-03-27T10:30:36.529Z,9.50
2023-03-27T10:33:03.470Z,9.50
2023-03-27T10:35:36.989Z,9.50
2023-03-27T10:38:07.467Z,9.60
2023-03-27T10:40:36.894Z,9.60
2023-03-27T10:43:07.496Z,9.70
2023-03-27T10:45:44.092Z,9.70
2023-03-27T10:48:16.348Z,9.70
2023-03-27T10:50:45.795Z,9.80
2023-03-27T10:53:26.970Z,9.90
2023-03-27T10:56:10.728Z,10.50
2023-03-27T10:58:41.379Z,9.90
2023-03-27T11:01:21.326Z,10.00
2023-03-27T11:04:30.264Z,10.10
2023-03-27T11:06:58.967Z,10.10
2023-03-27T11:09:31.198Z,10.10
2023-03-27T11:12:10.341Z,10.10
2023-03-27T11:15:07.634Z,10.20
2023-03-27T11:17:44.668Z,10.20
2023-03-27T11:20:24.940Z,10.30
2023-03-27T11:22:59.613Z,10.30
2023-03-27T11:25:41.009Z,10.30
2023-03-27T11:28:33.881Z,10.40
2023-03-27T11:31:27.858Z,10.40
2023-03-27T11:34:07.017Z,10.50
2023-03-27T11:36:59.609Z,10.50
2023-03-27T11:39:36.171Z,10.60
2023-03-27T11:42:10.484Z,10.60
2023-03-27T11:44:37.124Z,10.60
2023-03-27T11:47:44.284Z,10.60
2023-03-27T11:50:29.290Z,10.70
2023-03-27T11:53:23.712Z,10.80
2023-03-27T11:56:09.719Z,10.80
2023-03-27T11:59:02.910Z,10.80
2023-03-27T12:01:44.906Z,10.90
2023-03-27T12:04:36.602Z,10.90
2023-03-27T12:07:33.992Z,13.30
2023-03-27T12:10:28.761Z,11.00
2023-03-27T12:13:09.414Z,11.10
2023-03-27T12:16:15.053Z,11.10
2023-03-27T12:19:28.411Z,11.10
2023-03-27T12:22:25.905Z,11.20
2023-03-27T12:25:01.947Z,11.30
2023-03-27T12:27:47.326Z,11.30
2023-03-27T12:30:22.790Z,11.40
2023-03-27T12:33:04.633Z,11.40
2023-03-27T12:35:36.207Z,11.50
2023-03-27T12:38:06.207Z,11.60
2023-03-27T12:40:39.475Z,11.60
2023-03-27T12:43:09.050Z,12.90
2023-03-27T12:45:44.107Z,11.80
2023-03-27T12:48:19.178Z,11.80
2023-03-27T12:50:52.593Z,11.90
2023-03-27T12:53:23.269Z,12.00
2023-03-27T12:56:17.648Z,12.10
2023-03-27T12:58:49.217Z,12.10
2023-03-27T13:01:36.356Z,12.20
2023-03-27T13:04:18.088Z,12.30
2023-03-27T13:07:24.606Z,12.40
2023-03-27T13:09:56.579Z,12.50
2023-03-27T13:12:44.060Z,12.50
2023-03-27T13:15:50.825Z,12.60
2023-03-27T13:18:28.048Z,12.60
2023-03-27T13:21:10.664Z,12.70
2023-03-27T13:23:56.399Z,12.70
2023-03-27T13:26:47.779Z,12.70
2023-03-27T13:29:23.334Z,12.80
2023-03-27T13:31:49.987Z,12.80
2023-03-27T13:34:39.191Z,12.80
2023-03-27T13:40:18.558Z,12.80
2023-03-27T13:42:48.252Z,12.80
2023-03-27T13:45:23.577Z,12.80
2023-03-27T13:47:59.282Z,12.80
2023-03-27T13:51:00.053Z,12.80
2023-03-27T13:54:05.185Z,12.80
2023-03-27T13:57:04.752Z,12.80
2023-03-27T14:00:00.874Z,12.70
2023-03-27T14:02:40.172Z,12.60
2023-03-27T14:05:16.239Z,12.60
2023-03-27T14:08:00.988Z,12.60
2023-03-27T14:11:05.767Z,12.60
2023-03-27T14:13:54.824Z,12.60
2023-03-27T14:16:52.414Z,12.60
2023-03-27T14:19:49.773Z,12.70
2023-03-27T14:22:23.592Z,12.70
2023-03-27T14:24:56.946Z,12.70
2023-03-27T14:27:24.502Z,12.80
2023-03-27T14:30:24.267Z,12.90
2023-03-27T14:32:51.136Z,12.90
2023-03-27T14:35:43.951Z,12.90
2023-03-27T14:38:22.059Z,13.00
2023-03-27T14:40:52.462Z,13.00
2023-03-27T14:43:21.231Z,13.00
2023-03-27T14:45:50.037Z,13.00
2023-03-27T14:48:37.548Z,12.90
2023-03-27T14:51:35.391Z,12.90
2023-03-27T14:54:05.898Z,13.00
2023-03-27T14:56:41.560Z,12.90
2023-03-27T14:59:23.432Z,12.90
2023-03-27T15:01:51.194Z,12.90
2023-03-27T15:04:19.722Z,12.90
2023-03-27T15:06:49.983Z,12.90
2023-03-27T15:09:24.099Z,12.90
2023-03-27T15:12:00.901Z,12.90
2023-03-27T15:14:29.675Z,12.80
2023-03-27T15:17:06.764Z,12.80
2023-03-27T15:19:45.434Z,12.70
2023-03-27T15:22:33.731Z,12.70
2023-03-27T15:25:08.715Z,12.60
2023-03-27T15:27:41.408Z,12.60
2023-03-27T15:30:43.509Z,12.60
2023-03-27T15:33:20.359Z,12.50
2023-03-27T15:35:51.728Z,12.50
2023-03-27T15:38:25.507Z,12.50
2023-03-27T15:41:01.109Z,12.50
2023-03-27T15:43:28.538Z,12.40
2023-03-27T15:46:13.545Z,12.40
2023-03-27T15:48:44.057Z,12.30
2023-03-27T15:51:13.932Z,12.30
2023-03-27T15:53:41.725Z,12.30
2023-03-27T15:56:35.556Z,12.20
2023-03-27T15:59:06.121Z,12.90
2023-03-27T16:01:40.014Z,12.20
2023-03-27T16:04:16.608Z,12.10
2023-03-27T16:06:55.623Z,12.10
2023-03-27T16:09:22.685Z,12.00
2023-03-27T16:11:50.866Z,12.00
2023-03-27T16:14:31.712Z,12.00
2023-03-27T16:17:20.714Z,11.90
2023-03-27T16:19:56.959Z,11.90
2023-03-27T16:22:37.512Z,11.80
2023-03-27T16:25:08.005Z,11.80
2023-03-27T16:27:45.406Z,11.80
2023-03-27T16:30:33.053Z,11.80
2023-03-27T16:33:01.316Z,11.70
2023-03-27T16:35:32.499Z,11.70
2023-03-27T16:38:00.203Z,11.60
2023-03-27T16:40:27.929Z,11.60
2023-03-27T16:42:55.771Z,11.50
2023-03-27T16:45:23.070Z,11.50
2023-03-27T16:47:53.123Z,11.50
2023-03-27T16:50:22.921Z,11.40
2023-03-27T16:52:50.043Z,11.40
2023-03-27T16:55:17.465Z,11.40
2023-03-27T16:57:48.659Z,11.30
2023-03-27T17:00:16.570Z,11.30
2023-03-27T17:02:44.768Z,11.20
2023-03-27T17:05:11.769Z,11.20
2023-03-27T17:07:39.016Z,11.10
2023-03-27T17:10:06.622Z,11.10
2023-03-27T17:12:33.382Z,11.10
2023-03-27T17:15:00.826Z,11.10
2023-03-27T17:17:27.657Z,11.00
2023-03-27T17:19:54.625Z,11.00
2023-03-27T17:22:21.522Z,10.90
2023-03-27T17:24:56.136Z,10.90
2023-03-27T17:27:25.856Z,10.90
2023-03-27T17:29:52.651Z,10.90
2023-03-27T17:32:19.432Z,10.80
2023-03-27T17:34:46.585Z,10.70
2023-03-27T17:37:13.247Z,10.70
2023-03-27T17:39:40.987Z,10.70
2023-03-27T17:42:07.627Z,10.70
2023-03-27T17:44:34.296Z,10.60
2023-03-27T17:47:01.264Z,10.60
2023-03-27T17:49:29.948Z,10.50
2023-03-27T17:51:56.833Z,10.50
2023-03-27T17:54:23.750Z,10.40
2023-03-27T17:56:50.691Z,10.40
2023-03-27T17:59:17.928Z,10.40
2023-03-27T18:01:45.741Z,10.30
2023-03-27T18:04:12.458Z,10.30
2023-03-27T18:06:39.133Z,10.20
2023-03-27T18:09:07.668Z,10.20
2023-03-27T18:11:34.327Z,10.10
2023-03-27T18:14:01.269Z,10.00
2023-03-27T18:16:28.028Z,10.00
2023-03-27T18:18:55.644Z,10.00
2023-03-27T18:21:22.514Z,9.90
2023-03-27T18:23:50.531Z,9.90
2023-03-27T18:26:18.700Z,9.80
2023-03-27T18:28:45.394Z,9.80
2023-03-27T18:31:12.838Z,9.80
2023-03-27T18:33:39.590Z,9.70
2023-03-27T18:36:10.437Z,9.70
2023-03-27T18:38:41.692Z,9.60
2023-03-27T18:41:09.196Z,9.10
2023-03-27T18:43:36.536Z,9.50
2023-03-27T18:46:08.318Z,9.50
2023-03-27T18:48:35.387Z,9.40
2023-03-27T18:51:04.244Z,9.40
2023-03-27T18:53:31.354Z,9.30
2023-03-27T18:55:59.031Z,9.30
2023-03-27T18:58:27.689Z,9.30
2023-03-27T19:00:58.064Z,9.20
2023-03-27T19:03:26.798Z,9.20
2023-03-27T19:05:53.596Z,9.20
2023-03-27T19:08:21.563Z,9.10
2023-03-27T19:10:48.506Z,9.10
2023-03-27T19:13:16.074Z,9.00
2023-03-27T19:15:43.609Z,9.00
2023-03-27T19:18:10.936Z,9.00
2023-03-27T19:20:37.577Z,9.00
2023-03-27T19:23:05.730Z,8.90
2023-03-27T19:25:36.863Z,8.90
2023-03-27T19:28:05.379Z,8.90
2023-03-27T19:30:33.027Z,8.80
2023-03-27T19:33:02.733Z,8.70
2023-03-27T19:35:29.411Z,8.70
2023-03-27T19:37:56.153Z,8.70
2023-03-27T19:40:23.168Z,8.70
2023-03-27T19:42:50.042Z,8.60
2023-03-27T19:45:17.326Z,8.60
2023-03-27T19:47:44.028Z,8.60
2023-03-27T19:50:11.667Z,8.60
2023-03-27T19:52:38.893Z,8.50
2023-03-27T19:55:07.751Z,8.50
2023-03-27T19:57:34.564Z,8.50
2023-03-27T20:00:01.541Z,8.50
2023-03-27T20:02:28.343Z,8.50
2023-03-27T20:04:55.081Z,8.50
2023-03-27T20:07:21.745Z,8.50
2023-03-27T20:09:48.524Z,8.50
2023-03-27T20:12:15.923Z,8.40
2023-03-27T20:14:44.896Z,8.40
2023-03-27T20:17:27.659Z,8.40
2023-03-27T20:20:02.251Z,8.40
2023-03-27T20:22:31.583Z,8.40
2023-03-27T20:25:28.276Z,8.30
2023-03-27T20:27:57.545Z,8.40
2023-03-27T20:30:48.616Z,8.30
2023-03-27T20:33:17.723Z,8.30
2023-03-27T20:35:47.209Z,8.30
2023-03-27T20:38:16.185Z,8.30
2023-03-27T20:40:52.977Z,8.30
2023-03-27T20:43:24.522Z,8.30
2023-03-27T20:45:56.052Z,8.30
2023-03-27T20:48:24.393Z,8.20
2023-03-27T20:50:52.280Z,8.20
2023-03-27T20:53:25.925Z,8.20
2023-03-27T20:56:00.616Z,8.20
2023-03-27T20:58:27.637Z,8.20
2023-03-27T21:00:55.988Z,8.20
2023-03-27T21:03:23.306Z,8.10
2023-03-27T21:05:50.557Z,8.10
2023-03-27T21:08:17.266Z,8.10
2023-03-27T21:10:53.107Z,8.10
2023-03-27T21:13:20.222Z,8.00
2023-03-27T21:15:47.427Z,8.00
2023-03-27T21:18:14.177Z,8.00
2023-03-27T21:20:40.828Z,8.00
2023-03-27T21:23:07.483Z,8.00
2023-03-27T21:25:34.794Z,8.00
2023-03-27T21:28:01.608Z,7.90
2023-03-27T21:30:46.486Z,7.90
2023-03-27T21:33:17.965Z,7.90
2023-03-27T21:40:42.891Z,7.80
2023-03-27T21:43:09.673Z,7.80
2023-03-27T21:45:36.602Z,7.80
2023-03-27T21:48:03.490Z,7.20
2023-03-27T21:50:30.238Z,7.70
2023-03-27T21:52:57.587Z,7.70
2023-03-27T21:55:24.298Z,7.70
2023-03-27T21:57:52.206Z,7.60
2023-03-27T22:00:19.624Z,7.60
2023-03-27T22:02:46.359Z,7.60
2023-03-27T22:05:13.134Z,7.60
2023-03-27T22:07:39.852Z,7.50
2023-03-27T22:10:07.128Z,7.50
2023-03-27T22:12:37.638Z,7.50
2023-03-27T22:15:06.949Z,7.50
2023-03-27T22:17:36.329Z,7.50
2023-03-27T22:20:04.808Z,7.50
2023-03-27T22:22:34.108Z,7.40
2023-03-27T22:25:01.549Z,7.50
2023-03-27T22:27:28.717Z,7.50
2023-03-27T22:29:56.206Z,7.40
2023-03-27T22:32:23.052Z,7.40
2023-03-27T22:34:49.857Z,7.40
2023-03-27T22:37:17.061Z,7.40
2023-03-27T22:39:43.851Z,6.10
2023-03-27T22:42:10.786Z,7.30
2023-03-27T22:44:37.479Z,7.30
2023-03-27T22:47:04.214Z,7.20
2023-03-27T22:49:30.945Z,7.20
2023-03-27T22:51:57.635Z,7.20
2023-03-27T22:54:24.380Z,7.20
2023-03-27T22:56:51.168Z,7.20
2023-03-27T22:59:17.800Z,7.10
2023-03-27T23:01:44.740Z,7.10
2023-03-27T23:04:11.429Z,7.00
2023-03-27T23:06:38.382Z,7.00
2023-03-27T23:09:05.314Z,7.00
2023-03-27T23:11:32.541Z,7.00
2023-03-27T23:13:59.793Z,6.90
2023-03-27T23:16:26.446Z,6.90
2023-03-27T23:18:53.096Z,6.90
2023-03-27T23:21:19.784Z,6.90
2023-03-27T23:23:46.818Z,6.80
2023-03-27T23:26:14.170Z,6.90
2023-03-27T23:28:41.915Z,6.80
2023-03-27T23:31:12.000Z,6.80
2023-03-27T23:33:43.750Z,6.80
2023-03-27T23:36:13.094Z,6.80
2023-03-27T23:38:41.375Z,6.80
2023-03-27T23:41:09.469Z,6.70
2023-03-27T23:43:36.694Z,6.70
2023-03-27T23:46:05.384Z,6.60
2023-03-27T23:48:32.160Z,6.60
2023-03-27T23:50:58.801Z,6.50
2023-03-27T23:53:26.689Z,6.50
2023-03-27T23:55:56.045Z,6.50
2023-03-27T23:58:23.253Z,6.50
